< < Back
Terminal Aerodrome Forecast


Current Version              Previous Versions:   1  2  3  4  5  6  7  8  9  

Terminal Aerodrome Forecast

365
FTUS42 KILM 300500
TAFFLO
TAF
KFLO 300526Z 3006/3106 25010KT P6SM VCSH BKN080 OVC100
     FM301200 32015G25KT P6SM FEW050
     FM310000 35009KT P6SM SKC=

Latest METAR

950
SAUS70 KWBC 301400 RRF
MTRFLO
METAR KFLO 301353Z 35018G27KT 10SM CLR 09/M01 A3010 RMK AO2 PK WND
34027/1351 SLP190 T00891006


USA.gov is the U.S. government's official web portal to all federal, state and local government web resources and services.